sensor_id;sensor_type;location;lat;lon;timestamp;temperature;humidity
70051;SHT30;57391;51.306;22.680;2022-11-20T00:01:31;-3.99;74.39
70051;SHT30;57391;51.306;22.680;2022-11-20T00:04:00;-4.03;74.56
70051;SHT30;57391;51.306;22.680;2022-11-20T00:06:28;-4.08;74.76
70051;SHT30;57391;51.306;22.680;2022-11-20T00:08:58;-4.14;75.03
70051;SHT30;57391;51.306;22.680;2022-11-20T00:11:28;-4.20;75.40
70051;SHT30;57391;51.306;22.680;2022-11-20T00:13:58;-4.22;75.60
70051;SHT30;57391;51.306;22.680;2022-11-20T00:16:28;-4.22;75.80
70051;SHT30;57391;51.306;22.680;2022-11-20T00:18:59;-4.22;76.03
70051;SHT30;57391;51.306;22.680;2022-11-20T00:21:27;-4.20;76.10
70051;SHT30;57391;51.306;22.680;2022-11-20T00:23:56;-4.20;76.17
70051;SHT30;57391;51.306;22.680;2022-11-20T00:26:25;-4.19;76.22
70051;SHT30;57391;51.306;22.680;2022-11-20T00:28:56;-4.17;76.30
70051;SHT30;57391;51.306;22.680;2022-11-20T00:31:27;-4.15;76.31
70051;SHT30;57391;51.306;22.680;2022-11-20T00:33:56;-4.14;76.30
70051;SHT30;57391;51.306;22.680;2022-11-20T00:36:24;-4.10;76.30
70051;SHT30;57391;51.306;22.680;2022-11-20T00:38:54;-4.05;76.26
70051;SHT30;57391;51.306;22.680;2022-11-20T00:41:26;-4.02;76.16
70051;SHT30;57391;51.306;22.680;2022-11-20T00:43:55;-3.98;76.07
70051;SHT30;57391;51.306;22.680;2022-11-20T00:46:24;-3.97;75.93
70051;SHT30;57391;51.306;22.680;2022-11-20T00:48:53;-3.96;75.94
70051;SHT30;57391;51.306;22.680;2022-11-20T00:51:21;-3.95;75.84
70051;SHT30;57391;51.306;22.680;2022-11-20T00:53:51;-3.96;75.80
70051;SHT30;57391;51.306;22.680;2022-11-20T00:56:19;-3.99;75.79
70051;SHT30;57391;51.306;22.680;2022-11-20T00:58:47;-4.00;75.81
70051;SHT30;57391;51.306;22.680;2022-11-20T01:01:19;-4.02;75.89
70051;SHT30;57391;51.306;22.680;2022-11-20T01:03:51;-4.04;75.93
70051;SHT30;57391;51.306;22.680;2022-11-20T01:06:23;-4.04;75.94
70051;SHT30;57391;51.306;22.680;2022-11-20T01:09:04;-4.04;76.00
70051;SHT30;57391;51.306;22.680;2022-11-20T01:11:35;-4.01;76.06
70051;SHT30;57391;51.306;22.680;2022-11-20T01:14:10;-3.99;76.14
70051;SHT30;57391;51.306;22.680;2022-11-20T01:16:46;-3.94;76.22
70051;SHT30;57391;51.306;22.680;2022-11-20T01:19:25;-3.90;76.37
70051;SHT30;57391;51.306;22.680;2022-11-20T01:21:53;-3.87;76.47
70051;SHT30;57391;51.306;22.680;2022-11-20T01:24:21;-3.85;76.79
70051;SHT30;57391;51.306;22.680;2022-11-20T01:26:50;-3.83;77.09
70051;SHT30;57391;51.306;22.680;2022-11-20T01:29:23;-3.82;77.20
70051;SHT30;57391;51.306;22.680;2022-11-20T01:31:51;-3.76;77.29
70051;SHT30;57391;51.306;22.680;2022-11-20T01:34:20;-3.71;77.35
70051;SHT30;57391;51.306;22.680;2022-11-20T01:36:49;-3.66;77.40
70051;SHT30;57391;51.306;22.680;2022-11-20T01:39:18;-3.62;77.55
70051;SHT30;57391;51.306;22.680;2022-11-20T01:41:50;-3.57;77.68
70051;SHT30;57391;51.306;22.680;2022-11-20T01:44:51;-3.52;77.67
70051;SHT30;57391;51.306;22.680;2022-11-20T01:47:31;-3.46;77.65
70051;SHT30;57391;51.306;22.680;2022-11-20T01:50:16;-3.41;77.71
70051;SHT30;57391;51.306;22.680;2022-11-20T01:52:56;-3.35;77.72
70051;SHT30;57391;51.306;22.680;2022-11-20T01:55:31;-3.31;77.74
70051;SHT30;57391;51.306;22.680;2022-11-20T01:58:02;-3.25;77.68
70051;SHT30;57391;51.306;22.680;2022-11-20T02:00:31;-3.18;77.56
70051;SHT30;57391;51.306;22.680;2022-11-20T02:03:00;-3.13;77.44
70051;SHT30;57391;51.306;22.680;2022-11-20T02:08:08;-3.01;77.26
70051;SHT30;57391;51.306;22.680;2022-11-20T02:10:35;-2.95;77.08
70051;SHT30;57391;51.306;22.680;2022-11-20T02:13:02;-2.91;76.96
70051;SHT30;57391;51.306;22.680;2022-11-20T02:15:49;-2.87;76.91
70051;SHT30;57391;51.306;22.680;2022-11-20T02:18:17;-2.85;76.90
70051;SHT30;57391;51.306;22.680;2022-11-20T02:20:49;-2.83;76.90
70051;SHT30;57391;51.306;22.680;2022-11-20T02:23:39;-2.79;76.94
70051;SHT30;57391;51.306;22.680;2022-11-20T02:26:35;-2.76;77.00
70051;SHT30;57391;51.306;22.680;2022-11-20T02:29:10;-2.73;77.01
70051;SHT30;57391;51.306;22.680;2022-11-20T02:31:38;-2.68;77.12
70051;SHT30;57391;51.306;22.680;2022-11-20T02:34:09;-2.61;77.12
70051;SHT30;57391;51.306;22.680;2022-11-20T02:36:36;-2.54;77.05
70051;SHT30;57391;51.306;22.680;2022-11-20T02:39:09;-2.51;76.90
70051;SHT30;57391;51.306;22.680;2022-11-20T02:41:39;-2.48;76.90
70051;SHT30;57391;51.306;22.680;2022-11-20T02:44:07;-2.45;76.83
70051;SHT30;57391;51.306;22.680;2022-11-20T02:46:34;-2.44;76.72
70051;SHT30;57391;51.306;22.680;2022-11-20T02:49:02;-2.43;76.70
70051;SHT30;57391;51.306;22.680;2022-11-20T02:51:31;-2.44;76.72
70051;SHT30;57391;51.306;22.680;2022-11-20T02:53:58;-2.43;76.80
70051;SHT30;57391;51.306;22.680;2022-11-20T02:56:26;-2.40;76.80
70051;SHT30;57391;51.306;22.680;2022-11-20T02:58:53;-2.38;76.81
70051;SHT30;57391;51.306;22.680;2022-11-20T03:01:21;-2.32;76.85
70051;SHT30;57391;51.306;22.680;2022-11-20T03:03:48;-2.29;76.76
70051;SHT30;57391;51.306;22.680;2022-11-20T03:06:16;-2.27;76.83
70051;SHT30;57391;51.306;22.680;2022-11-20T03:08:43;-2.27;76.91
70051;SHT30;57391;51.306;22.680;2022-11-20T03:11:11;-2.29;77.00
70051;SHT30;57391;51.306;22.680;2022-11-20T03:13:38;-2.30;77.08
70051;SHT30;57391;51.306;22.680;2022-11-20T03:16:07;-2.31;77.21
70051;SHT30;57391;51.306;22.680;2022-11-20T03:18:41;-2.36;77.41
70051;SHT30;57391;51.306;22.680;2022-11-20T03:21:09;-2.38;77.64
70051;SHT30;57391;51.306;22.680;2022-11-20T03:23:39;-2.38;77.80
70051;SHT30;57391;51.306;22.680;2022-11-20T03:26:08;-2.33;77.82
70051;SHT30;57391;51.306;22.680;2022-11-20T03:28:45;-2.30;77.62
70051;SHT30;57391;51.306;22.680;2022-11-20T03:31:18;-2.28;77.56
70051;SHT30;57391;51.306;22.680;2022-11-20T03:33:51;-2.27;77.46
70051;SHT30;57391;51.306;22.680;2022-11-20T03:36:19;-2.26;77.51
70051;SHT30;57391;51.306;22.680;2022-11-20T03:38:47;-2.25;77.52
70051;SHT30;57391;51.306;22.680;2022-11-20T03:41:15;-2.21;77.51
70051;SHT30;57391;51.306;22.680;2022-11-20T03:43:49;-2.18;77.47
70051;SHT30;57391;51.306;22.680;2022-11-20T03:46:20;-2.17;77.39
70051;SHT30;57391;51.306;22.680;2022-11-20T03:48:48;-2.15;77.38
70051;SHT30;57391;51.306;22.680;2022-11-20T03:51:25;-2.10;77.36
70051;SHT30;57391;51.306;22.680;2022-11-20T03:54:00;-2.03;77.39
70051;SHT30;57391;51.306;22.680;2022-11-20T03:56:32;-1.97;77.24
70051;SHT30;57391;51.306;22.680;2022-11-20T03:59:02;-1.90;77.19
70051;SHT30;57391;51.306;22.680;2022-11-20T04:01:34;-1.85;77.07
70051;SHT30;57391;51.306;22.680;2022-11-20T04:04:05;-1.79;76.95
70051;SHT30;57391;51.306;22.680;2022-11-20T04:06:34;-1.78;76.82
70051;SHT30;57391;51.306;22.680;2022-11-20T04:09:05;-1.76;76.73
70051;SHT30;57391;51.306;22.680;2022-11-20T04:11:34;-1.75;76.60
70051;SHT30;57391;51.306;22.680;2022-11-20T04:14:04;-1.76;76.50
70051;SHT30;57391;51.306;22.680;2022-11-20T04:16:38;-1.77;76.44
70051;SHT30;57391;51.306;22.680;2022-11-20T04:19:06;-1.80;76.45
70051;SHT30;57391;51.306;22.680;2022-11-20T04:21:38;-1.80;76.47
70051;SHT30;57391;51.306;22.680;2022-11-20T04:24:06;-1.83;76.35
70051;SHT30;57391;51.306;22.680;2022-11-20T04:26:34;-1.84;76.41
70051;SHT30;57391;51.306;22.680;2022-11-20T04:29:01;-1.83;76.29
70051;SHT30;57391;51.306;22.680;2022-11-20T04:31:30;-1.85;76.16
70051;SHT30;57391;51.306;22.680;2022-11-20T04:34:01;-1.91;76.07
70051;SHT30;57391;51.306;22.680;2022-11-20T04:36:31;-1.98;76.12
70051;SHT30;57391;51.306;22.680;2022-11-20T04:39:00;-2.06;76.11
70051;SHT30;57391;51.306;22.680;2022-11-20T04:41:30;-2.14;76.17
70051;SHT30;57391;51.306;22.680;2022-11-20T04:44:01;-2.17;76.32
70051;SHT30;57391;51.306;22.680;2022-11-20T04:46:31;-2.21;76.23
70051;SHT30;57391;51.306;22.680;2022-11-20T04:49:06;-2.26;76.34
70051;SHT30;57391;51.306;22.680;2022-11-20T04:51:34;-2.31;76.33
70051;SHT30;57391;51.306;22.680;2022-11-20T04:54:02;-2.36;76.41
70051;SHT30;57391;51.306;22.680;2022-11-20T04:56:30;-2.40;76.47
70051;SHT30;57391;51.306;22.680;2022-11-20T04:58:59;-2.43;76.56
70051;SHT30;57391;51.306;22.680;2022-11-20T05:01:28;-2.48;76.54
70051;SHT30;57391;51.306;22.680;2022-11-20T05:03:55;-2.53;76.66
70051;SHT30;57391;51.306;22.680;2022-11-20T05:06:22;-2.56;76.80
70051;SHT30;57391;51.306;22.680;2022-11-20T05:08:50;-2.60;76.91
70051;SHT30;57391;51.306;22.680;2022-11-20T05:11:18;-2.59;76.89
70051;SHT30;57391;51.306;22.680;2022-11-20T05:13:48;-2.60;76.91
70051;SHT30;57391;51.306;22.680;2022-11-20T05:16:18;-2.59;76.94
70051;SHT30;57391;51.306;22.680;2022-11-20T05:18:48;-2.61;76.87
70051;SHT30;57391;51.306;22.680;2022-11-20T05:21:16;-2.63;76.90
70051;SHT30;57391;51.306;22.680;2022-11-20T05:23:45;-2.65;76.97
70051;SHT30;57391;51.306;22.680;2022-11-20T05:26:13;-2.65;77.13
70051;SHT30;57391;51.306;22.680;2022-11-20T05:28:48;-2.66;77.19
70051;SHT30;57391;51.306;22.680;2022-11-20T05:31:17;-2.68;77.20
70051;SHT30;57391;51.306;22.680;2022-11-20T05:33:47;-2.70;77.21
70051;SHT30;57391;51.306;22.680;2022-11-20T05:36:15;-2.72;77.23
70051;SHT30;57391;51.306;22.680;2022-11-20T05:38:43;-2.76;77.22
70051;SHT30;57391;51.306;22.680;2022-11-20T05:41:12;-2.80;77.30
70051;SHT30;57391;51.306;22.680;2022-11-20T05:43:43;-2.80;77.24
70051;SHT30;57391;51.306;22.680;2022-11-20T05:46:12;-2.82;77.12
70051;SHT30;57391;51.306;22.680;2022-11-20T05:48:43;-2.84;77.10
70051;SHT30;57391;51.306;22.680;2022-11-20T05:51:12;-2.87;77.09
70051;SHT30;57391;51.306;22.680;2022-11-20T05:53:43;-2.90;77.11
70051;SHT30;57391;51.306;22.680;2022-11-20T05:56:11;-2.95;77.16
70051;SHT30;57391;51.306;22.680;2022-11-20T05:58:45;-2.96;77.33
70051;SHT30;57391;51.306;22.680;2022-11-20T06:01:15;-3.00;77.34
70051;SHT30;57391;51.306;22.680;2022-11-20T06:03:48;-3.02;77.40
70051;SHT30;57391;51.306;22.680;2022-11-20T06:06:17;-3.06;77.51
70051;SHT30;57391;51.306;22.680;2022-11-20T06:08:45;-3.08;77.61
70051;SHT30;57391;51.306;22.680;2022-11-20T06:11:14;-3.12;77.73
70051;SHT30;57391;51.306;22.680;2022-11-20T06:13:43;-3.14;77.80
70051;SHT30;57391;51.306;22.680;2022-11-20T06:16:12;-3.13;77.89
70051;SHT30;57391;51.306;22.680;2022-11-20T06:18:43;-3.16;77.90
70051;SHT30;57391;51.306;22.680;2022-11-20T06:21:12;-3.17;77.98
70051;SHT30;57391;51.306;22.680;2022-11-20T06:23:42;-3.17;78.05
70051;SHT30;57391;51.306;22.680;2022-11-20T06:26:14;-3.17;78.02
70051;SHT30;57391;51.306;22.680;2022-11-20T06:28:45;-3.18;78.07
70051;SHT30;57391;51.306;22.680;2022-11-20T06:31:14;-3.18;78.16
70051;SHT30;57391;51.306;22.680;2022-11-20T06:33:43;-3.19;78.20
70051;SHT30;57391;51.306;22.680;2022-11-20T06:36:12;-3.17;78.20
70051;SHT30;57391;51.306;22.680;2022-11-20T06:38:42;-3.14;78.13
70051;SHT30;57391;51.306;22.680;2022-11-20T06:41:10;-3.08;78.15
70051;SHT30;57391;51.306;22.680;2022-11-20T06:43:43;-2.92;78.10
70051;SHT30;57391;51.306;22.680;2022-11-20T06:46:11;-2.76;77.91
70051;SHT30;57391;51.306;22.680;2022-11-20T06:48:41;-2.69;77.59
70051;SHT30;57391;51.306;22.680;2022-11-20T06:51:09;-2.68;77.41
70051;SHT30;57391;51.306;22.680;2022-11-20T06:53:36;-2.65;77.42
70051;SHT30;57391;51.306;22.680;2022-11-20T06:56:05;-2.62;77.37
70051;SHT30;57391;51.306;22.680;2022-11-20T06:58:36;-2.58;77.32
70051;SHT30;57391;51.306;22.680;2022-11-20T07:01:05;-2.54;77.24
70051;SHT30;57391;51.306;22.680;2022-11-20T07:03:36;-2.49;77.17
70051;SHT30;57391;51.306;22.680;2022-11-20T07:06:04;-2.38;77.07
70051;SHT30;57391;51.306;22.680;2022-11-20T07:08:33;-2.23;76.90
70051;SHT30;57391;51.306;22.680;2022-11-20T07:11:11;-2.12;76.79
70051;SHT30;57391;51.306;22.680;2022-11-20T07:13:39;-2.02;76.63
70051;SHT30;57391;51.306;22.680;2022-11-20T07:16:06;-1.93;76.48
70051;SHT30;57391;51.306;22.680;2022-11-20T07:18:35;-1.85;76.37
70051;SHT30;57391;51.306;22.680;2022-11-20T07:21:09;-1.81;76.38
70051;SHT30;57391;51.306;22.680;2022-11-20T07:23:41;-1.77;76.40
70051;SHT30;57391;51.306;22.680;2022-11-20T07:26:18;-1.71;76.47
70051;SHT30;57391;51.306;22.680;2022-11-20T07:28:48;-1.64;76.62
70051;SHT30;57391;51.306;22.680;2022-11-20T07:31:23;-1.53;76.81
70051;SHT30;57391;51.306;22.680;2022-11-20T07:33:50;-1.42;76.74
70051;SHT30;57391;51.306;22.680;2022-11-20T07:36:17;-1.31;76.65
70051;SHT30;57391;51.306;22.680;2022-11-20T07:38:45;-1.21;76.55
70051;SHT30;57391;51.306;22.680;2022-11-20T07:41:13;-1.12;76.60
70051;SHT30;57391;51.306;22.680;2022-11-20T07:43:40;-1.02;76.58
70051;SHT30;57391;51.306;22.680;2022-11-20T07:46:07;-0.95;76.68
70051;SHT30;57391;51.306;22.680;2022-11-20T07:48:34;-0.88;76.67
70051;SHT30;57391;51.306;22.680;2022-11-20T07:51:02;-0.84;76.81
70051;SHT30;57391;51.306;22.680;2022-11-20T07:53:28;-0.80;76.89
70051;SHT30;57391;51.306;22.680;2022-11-20T07:56:00;-0.77;77.14
70051;SHT30;57391;51.306;22.680;2022-11-20T07:58:28;-0.79;76.99
70051;SHT30;57391;51.306;22.680;2022-11-20T08:00:57;-0.82;77.16
70051;SHT30;57391;51.306;22.680;2022-11-20T08:03:23;-0.86;77.27
70051;SHT30;57391;51.306;22.680;2022-11-20T08:05:51;-0.88;77.46
70051;SHT30;57391;51.306;22.680;2022-11-20T08:08:19;-0.93;77.55
70051;SHT30;57391;51.306;22.680;2022-11-20T08:10:49;-0.98;77.74
70051;SHT30;57391;51.306;22.680;2022-11-20T08:13:19;-1.02;78.12
70051;SHT30;57391;51.306;22.680;2022-11-20T08:16:05;-1.04;78.35
70051;SHT30;57391;51.306;22.680;2022-11-20T08:18:32;-1.06;78.54
70051;SHT30;57391;51.306;22.680;2022-11-20T08:21:03;-1.07;78.75
70051;SHT30;57391;51.306;22.680;2022-11-20T08:23:32;-1.08;79.04
70051;SHT30;57391;51.306;22.680;2022-11-20T08:25:59;-1.04;79.21
70051;SHT30;57391;51.306;22.680;2022-11-20T08:28:27;-1.01;79.22
70051;SHT30;57391;51.306;22.680;2022-11-20T08:30:58;-0.95;79.39
70051;SHT30;57391;51.306;22.680;2022-11-20T08:33:30;-0.90;79.20
70051;SHT30;57391;51.306;22.680;2022-11-20T08:35:59;-0.85;79.39
70051;SHT30;57391;51.306;22.680;2022-11-20T08:38:31;-0.82;79.23
70051;SHT30;57391;51.306;22.680;2022-11-20T08:40:59;-0.79;79.35
70051;SHT30;57391;51.306;22.680;2022-11-20T08:43:47;-0.74;79.49
70051;SHT30;57391;51.306;22.680;2022-11-20T08:46:15;-0.69;79.41
70051;SHT30;57391;51.306;22.680;2022-11-20T08:48:43;-0.66;79.30
70051;SHT30;57391;51.306;22.680;2022-11-20T08:51:11;-0.69;79.21
70051;SHT30;57391;51.306;22.680;2022-11-20T08:53:40;-0.73;79.29
70051;SHT30;57391;51.306;22.680;2022-11-20T08:56:08;-0.76;79.37
70051;SHT30;57391;51.306;22.680;2022-11-20T08:58:36;-0.80;79.46
70051;SHT30;57391;51.306;22.680;2022-11-20T09:01:04;-0.85;79.53
70051;SHT30;57391;51.306;22.680;2022-11-20T09:03:31;-0.88;79.71
70051;SHT30;57391;51.306;22.680;2022-11-20T09:05:59;-0.87;79.84
70051;SHT30;57391;51.306;22.680;2022-11-20T09:08:30;-0.83;80.02
70051;SHT30;57391;51.306;22.680;2022-11-20T09:10:58;-0.82;79.92
70051;SHT30;57391;51.306;22.680;2022-11-20T09:13:27;-0.83;79.99
70051;SHT30;57391;51.306;22.680;2022-11-20T09:15:59;-0.83;80.09
70051;SHT30;57391;51.306;22.680;2022-11-20T09:18:35;-0.84;80.05
70051;SHT30;57391;51.306;22.680;2022-11-20T09:21:05;-0.84;80.12
70051;SHT30;57391;51.306;22.680;2022-11-20T09:23:38;-0.83;80.09
70051;SHT30;57391;51.306;22.680;2022-11-20T09:26:11;-0.80;80.18
70051;SHT30;57391;51.306;22.680;2022-11-20T09:28:40;-0.77;80.17
70051;SHT30;57391;51.306;22.680;2022-11-20T09:31:08;-0.75;80.07
70051;SHT30;57391;51.306;22.680;2022-11-20T09:33:49;-0.74;80.10
70051;SHT30;57391;51.306;22.680;2022-11-20T09:36:17;-0.68;80.13
70051;SHT30;57391;51.306;22.680;2022-11-20T09:38:48;-0.63;80.04
70051;SHT30;57391;51.306;22.680;2022-11-20T09:44:19;-0.53;79.97
70051;SHT30;57391;51.306;22.680;2022-11-20T09:47:08;-0.45;79.94
70051;SHT30;57391;51.306;22.680;2022-11-20T09:55:25;-0.39;79.74
70051;SHT30;57391;51.306;22.680;2022-11-20T09:57:55;-0.40;79.74
70051;SHT30;57391;51.306;22.680;2022-11-20T10:00:26;-0.40;79.92
70051;SHT30;57391;51.306;22.680;2022-11-20T10:05:39;-0.36;80.09
70051;SHT30;57391;51.306;22.680;2022-11-20T10:11:08;-0.25;80.09
70051;SHT30;57391;51.306;22.680;2022-11-20T10:13:58;-0.18;80.11
70051;SHT30;57391;51.306;22.680;2022-11-20T10:22:52;-0.09;79.67
70051;SHT30;57391;51.306;22.680;2022-11-20T10:26:12;-0.17;79.49
70051;SHT30;57391;51.306;22.680;2022-11-20T10:31:51;-0.26;79.84
70051;SHT30;57391;51.306;22.680;2022-11-20T10:37:11;-0.23;79.97
70051;SHT30;57391;51.306;22.680;2022-11-20T10:39:56;-0.23;79.77
70051;SHT30;57391;51.306;22.680;2022-11-20T10:42:31;-0.25;79.85
70051;SHT30;57391;51.306;22.680;2022-11-20T10:45:14;-0.27;79.88
70051;SHT30;57391;51.306;22.680;2022-11-20T10:47:56;-0.28;79.82
70051;SHT30;57391;51.306;22.680;2022-11-20T10:50:40;-0.30;79.83
70051;SHT30;57391;51.306;22.680;2022-11-20T11:02:34;-0.26;79.99
70051;SHT30;57391;51.306;22.680;2022-11-20T11:05:10;-0.23;79.89
70051;SHT30;57391;51.306;22.680;2022-11-20T11:07:50;-0.21;79.76
70051;SHT30;57391;51.306;22.680;2022-11-20T11:13:18;-0.16;79.81
70051;SHT30;57391;51.306;22.680;2022-11-20T11:15:50;-0.12;79.81
70051;SHT30;57391;51.306;22.680;2022-11-20T11:18:26;-0.08;79.86
70051;SHT30;57391;51.306;22.680;2022-11-20T11:20:58;-0.04;79.73
70051;SHT30;57391;51.306;22.680;2022-11-20T11:26:20;-0.02;79.66
70051;SHT30;57391;51.306;22.680;2022-11-20T11:28:54;-0.01;79.61
70051;SHT30;57391;51.306;22.680;2022-11-20T11:31:33;-0.00;79.70
70051;SHT30;57391;51.306;22.680;2022-11-20T11:34:06;-0.00;79.72
70051;SHT30;57391;51.306;22.680;2022-11-20T11:36:37;0.04;79.77
70051;SHT30;57391;51.306;22.680;2022-11-20T11:39:08;0.09;79.75
70051;SHT30;57391;51.306;22.680;2022-11-20T11:41:46;0.16;79.68
70051;SHT30;57391;51.306;22.680;2022-11-20T11:44:22;0.21;79.62
70051;SHT30;57391;51.306;22.680;2022-11-20T11:47:20;0.26;79.47
70051;SHT30;57391;51.306;22.680;2022-11-20T11:50:15;0.26;79.47
70051;SHT30;57391;51.306;22.680;2022-11-20T12:04:25;0.39;79.22
70051;SHT30;57391;51.306;22.680;2022-11-20T12:07:07;0.41;79.10
70051;SHT30;57391;51.306;22.680;2022-11-20T12:10:06;0.43;79.16
70051;SHT30;57391;51.306;22.680;2022-11-20T12:12:53;0.45;78.98
70051;SHT30;57391;51.306;22.680;2022-11-20T12:15:29;0.46;78.85
70051;SHT30;57391;51.306;22.680;2022-11-20T12:18:01;0.44;78.79
70051;SHT30;57391;51.306;22.680;2022-11-20T12:20:29;0.44;78.71
70051;SHT30;57391;51.306;22.680;2022-11-20T12:23:16;0.42;78.75
70051;SHT30;57391;51.306;22.680;2022-11-20T12:26:00;0.42;78.79
70051;SHT30;57391;51.306;22.680;2022-11-20T13:08:00;0.69;78.04
70051;SHT30;57391;51.306;22.680;2022-11-20T13:13:14;0.67;78.00
70051;SHT30;57391;51.306;22.680;2022-11-20T13:16:12;0.68;78.19
70051;SHT30;57391;51.306;22.680;2022-11-20T13:18:48;0.71;78.25
70051;SHT30;57391;51.306;22.680;2022-11-20T13:23:49;0.79;77.87
70051;SHT30;57391;51.306;22.680;2022-11-20T13:29:11;0.78;77.59
70051;SHT30;57391;51.306;22.680;2022-11-20T13:31:47;0.80;77.49
70051;SHT30;57391;51.306;22.680;2022-11-20T13:34:25;0.83;77.56
70051;SHT30;57391;51.306;22.680;2022-11-20T13:36:56;0.87;77.57
70051;SHT30;57391;51.306;22.680;2022-11-20T13:39:30;0.91;77.46
70051;SHT30;57391;51.306;22.680;2022-11-20T13:42:19;0.94;77.39
70051;SHT30;57391;51.306;22.680;2022-11-20T13:44:55;0.96;77.12
70051;SHT30;57391;51.306;22.680;2022-11-20T13:47:28;0.96;76.98
70051;SHT30;57391;51.306;22.680;2022-11-20T13:49:57;0.94;76.84
70051;SHT30;57391;51.306;22.680;2022-11-20T13:58:35;0.82;76.23
70051;SHT30;57391;51.306;22.680;2022-11-20T14:01:16;0.77;76.32
70051;SHT30;57391;51.306;22.680;2022-11-20T14:03:53;0.72;76.51
70051;SHT30;57391;51.306;22.680;2022-11-20T14:09:01;0.75;76.83
70051;SHT30;57391;51.306;22.680;2022-11-20T14:11:29;0.77;76.89
70051;SHT30;57391;51.306;22.680;2022-11-20T14:14:10;0.78;76.80
70051;SHT30;57391;51.306;22.680;2022-11-20T14:16:44;0.78;76.80
70051;SHT30;57391;51.306;22.680;2022-11-20T14:19:25;0.78;76.71
70051;SHT30;57391;51.306;22.680;2022-11-20T14:22:07;0.77;76.66
70051;SHT30;57391;51.306;22.680;2022-11-20T14:24:47;0.75;76.44
70051;SHT30;57391;51.306;22.680;2022-11-20T14:27:26;0.72;76.42
70051;SHT30;57391;51.306;22.680;2022-11-20T14:29:54;0.71;76.43
70051;SHT30;57391;51.306;22.680;2022-11-20T14:32:23;0.71;76.46
70051;SHT30;57391;51.306;22.680;2022-11-20T14:34:59;0.73;76.40
70051;SHT30;57391;51.306;22.680;2022-11-20T14:37:38;0.74;76.22
70051;SHT30;57391;51.306;22.680;2022-11-20T14:40:22;0.74;76.20
70051;SHT30;57391;51.306;22.680;2022-11-20T14:42:56;0.75;76.26
70051;SHT30;57391;51.306;22.680;2022-11-20T14:45:25;0.76;76.19
70051;SHT30;57391;51.306;22.680;2022-11-20T14:47:54;0.76;76.08
70051;SHT30;57391;51.306;22.680;2022-11-20T14:52:59;0.77;76.02
70051;SHT30;57391;51.306;22.680;2022-11-20T14:55:37;0.79;76.00
70051;SHT30;57391;51.306;22.680;2022-11-20T14:58:23;0.79;75.87
70051;SHT30;57391;51.306;22.680;2022-11-20T15:01:03;0.79;75.78
70051;SHT30;57391;51.306;22.680;2022-11-20T15:03:35;0.78;75.61
70051;SHT30;57391;51.306;22.680;2022-11-20T15:06:11;0.76;75.54
70051;SHT30;57391;51.306;22.680;2022-11-20T15:08:39;0.77;75.62
70051;SHT30;57391;51.306;22.680;2022-11-20T15:11:20;0.79;75.58
70051;SHT30;57391;51.306;22.680;2022-11-20T15:14:03;0.79;75.36
70051;SHT30;57391;51.306;22.680;2022-11-20T15:16:33;0.78;75.27
70051;SHT30;57391;51.306;22.680;2022-11-20T15:19:15;0.77;75.17
70051;SHT30;57391;51.306;22.680;2022-11-20T15:21:49;0.75;75.26
70051;SHT30;57391;51.306;22.680;2022-11-20T15:24:17;0.72;75.34
70051;SHT30;57391;51.306;22.680;2022-11-20T15:26:45;0.69;75.28
70051;SHT30;57391;51.306;22.680;2022-11-20T15:29:14;0.66;75.28
70051;SHT30;57391;51.306;22.680;2022-11-20T15:31:45;0.60;75.33
70051;SHT30;57391;51.306;22.680;2022-11-20T15:34:14;0.57;75.33
70051;SHT30;57391;51.306;22.680;2022-11-20T15:36:44;0.54;75.39
70051;SHT30;57391;51.306;22.680;2022-11-20T15:39:12;0.49;75.43
70051;SHT30;57391;51.306;22.680;2022-11-20T15:41:40;0.47;75.51
70051;SHT30;57391;51.306;22.680;2022-11-20T15:44:07;0.45;75.58
70051;SHT30;57391;51.306;22.680;2022-11-20T15:46:36;0.43;75.67
70051;SHT30;57391;51.306;22.680;2022-11-20T15:49:10;0.38;75.59
70051;SHT30;57391;51.306;22.680;2022-11-20T15:51:51;0.31;75.69
70051;SHT30;57391;51.306;22.680;2022-11-20T15:54:20;0.28;75.80
70051;SHT30;57391;51.306;22.680;2022-11-20T15:56:49;0.24;75.61
70051;SHT30;57391;51.306;22.680;2022-11-20T15:59:20;0.19;75.54
70051;SHT30;57391;51.306;22.680;2022-11-20T16:01:51;0.17;75.50
70051;SHT30;57391;51.306;22.680;2022-11-20T16:04:18;0.13;75.55
70051;SHT30;57391;51.306;22.680;2022-11-20T16:06:45;0.10;75.52
70051;SHT30;57391;51.306;22.680;2022-11-20T16:09:13;0.07;75.48
70051;SHT30;57391;51.306;22.680;2022-11-20T16:11:43;0.01;75.49
70051;SHT30;57391;51.306;22.680;2022-11-20T16:14:26;-0.03;75.53
70051;SHT30;57391;51.306;22.680;2022-11-20T16:17:55;-0.11;75.59
70051;SHT30;57391;51.306;22.680;2022-11-20T16:20:25;-0.15;75.62
70051;SHT30;57391;51.306;22.680;2022-11-20T16:22:56;-0.21;75.70
70051;SHT30;57391;51.306;22.680;2022-11-20T16:25:28;-0.27;75.83
70051;SHT30;57391;51.306;22.680;2022-11-20T16:27:56;-0.32;75.95
70051;SHT30;57391;51.306;22.680;2022-11-20T16:30:23;-0.35;76.08
70051;SHT30;57391;51.306;22.680;2022-11-20T16:32:51;-0.38;76.14
70051;SHT30;57391;51.306;22.680;2022-11-20T16:35:26;-0.39;76.18
70051;SHT30;57391;51.306;22.680;2022-11-20T16:37:55;-0.39;76.13
70051;SHT30;57391;51.306;22.680;2022-11-20T16:40:24;-0.40;76.10
70051;SHT30;57391;51.306;22.680;2022-11-20T16:42:52;-0.42;76.13
70051;SHT30;57391;51.306;22.680;2022-11-20T16:45:20;-0.44;76.23
70051;SHT30;57391;51.306;22.680;2022-11-20T16:47:48;-0.46;76.30
70051;SHT30;57391;51.306;22.680;2022-11-20T16:50:15;-0.46;76.37
70051;SHT30;57391;51.306;22.680;2022-11-20T16:52:43;-0.45;76.40
70051;SHT30;57391;51.306;22.680;2022-11-20T16:55:10;-0.44;76.39
70051;SHT30;57391;51.306;22.680;2022-11-20T16:57:37;-0.43;76.40
70051;SHT30;57391;51.306;22.680;2022-11-20T17:00:06;-0.41;76.44
70051;SHT30;57391;51.306;22.680;2022-11-20T17:02:34;-0.42;76.47
70051;SHT30;57391;51.306;22.680;2022-11-20T17:05:03;-0.43;76.42
70051;SHT30;57391;51.306;22.680;2022-11-20T17:07:31;-0.46;76.42
70051;SHT30;57391;51.306;22.680;2022-11-20T17:09:58;-0.52;76.53
70051;SHT30;57391;51.306;22.680;2022-11-20T17:12:26;-0.55;76.63
70051;SHT30;57391;51.306;22.680;2022-11-20T17:14:53;-0.60;76.78
70051;SHT30;57391;51.306;22.680;2022-11-20T17:17:21;-0.63;76.84
70051;SHT30;57391;51.306;22.680;2022-11-20T17:19:48;-0.65;76.90
70051;SHT30;57391;51.306;22.680;2022-11-20T17:22:15;-0.67;77.04
70051;SHT30;57391;51.306;22.680;2022-11-20T17:24:41;-0.63;77.10
70051;SHT30;57391;51.306;22.680;2022-11-20T17:27:09;-0.59;77.08
70051;SHT30;57391;51.306;22.680;2022-11-20T17:29:36;-0.59;76.92
70051;SHT30;57391;51.306;22.680;2022-11-20T17:32:04;-0.58;77.01
70051;SHT30;57391;51.306;22.680;2022-11-20T17:34:33;-0.56;77.00
70051;SHT30;57391;51.306;22.680;2022-11-20T17:37:04;-0.53;77.09
70051;SHT30;57391;51.306;22.680;2022-11-20T17:39:32;-0.53;76.94
70051;SHT30;57391;51.306;22.680;2022-11-20T17:42:05;-0.55;76.88
70051;SHT30;57391;51.306;22.680;2022-11-20T17:44:52;-0.59;76.88